Currently 61°F in Simi Valley, California, USA
61°F
67°F / 49°F
4 mph NW
0.00"
Tuesday, May 5, 2026 7:04 PM PDT

Simi Valley, California Weather Summary
Last 36 Hours

Temperature Winds Hourly Humidity Dewpoint
Time Report Norm Report Norm Max Gusts Precip. Rpt. Norm Rpt. Norm Pressure
1Tue 07:04 PM  61.0°F  68°F  4 mph NW  4 mph  7 mph  0.00"  68%  56%  50°F  51°F  29.91"
Tue 07:00 PM  61.3°F  68°F  2 mph NW  4 mph  14 mph  0.00"  67%  55%  50°F  51°F  29.91"
Tue 06:00 PM  62.6°F  70°F  3 mph W  5 mph  17 mph  0.00"  62%  52%  49°F  51°F  29.90"
Tue 05:00 PM  63.6°F  71°F  8 mph W  6 mph  18 mph  0.00"  58%  50%  48°F  51°F  29.89"
Tue 04:00 PM  65.6°F  72°F  2 mph W  7 mph  21 mph  0.00"  55%  48%  48°F  51°F  29.89"
2Tue 03:05 PM  67.2°F  73°F  8 mph W  7 mph  17 mph  ----  51%  47%  48°F  51°F  29.90"
Tue 03:00 PM  66.8°F  73°F  2 mph W  7 mph  18 mph  0.00"  52%  47%  48°F  51°F  29.90"
Tue 02:00 PM  65.0°F  73°F  4 mph W  7 mph  17 mph  0.00"  55%  47%  48°F  51°F  29.91"
Tue 01:00 PM  64.2°F  73°F  calm  6 mph  14 mph  0.00"  54%  48%  47°F  52°F  29.91"
Tue 12:00 PM  63.4°F  72°F  4 mph W  5 mph  10 mph  0.00"  54%  50%  46°F  51°F  29.93"
Tue 11:00 AM  62.0°F  69°F  calm  4 mph  8 mph  0.00"  62%  54%  48°F  51°F  29.93"
Tue 10:00 AM  58.1°F  66°F  calm  4 mph  4 mph  0.00"  74%  60%  49°F  51°F  29.93"
Tue 09:00 AM  55.0°F  62°F  calm  3 mph  3 mph  0.00"  83%  68%  50°F  51°F  29.92"
Tue 08:00 AM  51.9°F  58°F  calm  2 mph  3 mph  0.00"  85%  73%  47°F  49°F  29.92"
Tue 07:00 AM  49.8°F  55°F  calm  2 mph  6 mph  0.00"  85%  75%  45°F  47°F  29.92"
3Tue 06:36 AM  49.4°F  54°F  calm  2 mph  6 mph  ----  84%  75%  45°F  46°F  29.91"
Tue 06:00 AM  50.0°F  54°F  calm  2 mph  4 mph  0.00"  84%  75%  45°F  46°F  29.91"
Tue 05:00 AM  49.7°F  55°F  calm  2 mph  3 mph  0.00"  84%  74%  45°F  46°F  29.91"
Tue 04:00 AM  49.8°F  55°F  1 mph NE  2 mph  7 mph  0.00"  84%  73%  45°F  46°F  29.90"
Tue 03:00 AM  51.8°F  56°F  1 mph S  2 mph  5 mph  0.00"  83%  72%  46°F  47°F  29.91"
Tue 02:00 AM  53.6°F  56°F  2 mph NW  2 mph  4 mph  0.00"  82%  71%  48°F  47°F  29.92"
Tue 01:00 AM  55.0°F  57°F  2 mph NE  2 mph  5 mph  0.00"  81%  70%  49°F  47°F  29.94"
Tue 12:00 AM  54.5°F  58°F  1 mph N  2 mph  6 mph  0.00"  81%  69%  48°F  47°F  29.94"
Mon 11:00 PM  55.1°F  59°F  3 mph NW  2 mph  6 mph  0.00"  82%  68%  50°F  48°F  29.94"
Mon 10:00 PM  55.8°F  60°F  2 mph NW  2 mph  10 mph  0.00"  82%  66%  50°F  48°F  29.94"
Mon 09:00 PM  56.5°F  62°F  4 mph W  2 mph  14 mph  0.00"  81%  64%  50°F  49°F  29.93"
Mon 08:00 PM  57.5°F  65°F  5 mph W  3 mph  13 mph  0.00"  79%  60%  51°F  50°F  29.91"
Mon 07:00 PM  59.2°F  68°F  7 mph W  4 mph  18 mph  0.00"  73%  53%  50°F  50°F  29.91"
Mon 06:00 PM  61.0°F  71°F  7 mph SW  6 mph  19 mph  0.00"  66%  50%  49°F  50°F  29.92"
Mon 05:00 PM  62.9°F  72°F  5 mph SW  6 mph  19 mph  0.00"  61%  48%  49°F  50°F  29.91"
Mon 04:00 PM  64.0°F  73°F  8 mph W  7 mph  21 mph  0.00"  58%  46%  49°F  51°F  29.91"
Mon 03:00 PM  64.8°F  74°F  7 mph SW  7 mph  22 mph  0.00"  54%  46%  47°F  51°F  29.93"
Mon 02:00 PM  65.8°F  74°F  6 mph W  7 mph  27 mph  0.00"  47%  46%  45°F  51°F  29.93"
Mon 01:00 PM  66.9°F  74°F  6 mph SW  6 mph  16 mph  0.00"  51%  47%  48°F  51°F  29.94"
Mon 12:00 PM  63.6°F  72°F  calm  6 mph  17 mph  0.00"  56%  48%  47°F  51°F  29.95"
Mon 11:00 AM  60.7°F  70°F  4 mph NW  5 mph  15 mph  0.00"  61%  52%  47°F  51°F  29.96"
Mon 10:00 AM  59.8°F  67°F  5 mph W  4 mph  12 mph  0.00"  63%  58%  47°F  51°F  29.96"
Mon 09:00 AM  55.8°F  63°F  calm  3 mph  5 mph  0.00"  81%  66%  50°F  51°F  29.96"
Mon 08:00 AM  53.3°F  59°F  calm  2 mph  5 mph  0.00"  87%  72%  50°F  49°F  29.96"

  1. Current weather data. No green row appears if the current weather data is also the high or low for the current day.
  2. High temperature for the current day.
  3. Low temperature for the current day.

The Simi Valley, California weather pages are a service of WeatherCurrents.
Copyright ©Tue May 05 19:05:11 PDT 2026  WeatherCurrents. All rights reserved. - Submit questions and comments - Privacy Policy

This page automatically refreshes every 10 minutes.